sensor_id;sensor_type;location;lat;lon;timestamp;temperature;humidity
47162;DHT22;32921;53.256;8.198;2023-05-29T00:00:05;8.70;99.90
47162;DHT22;32921;53.256;8.198;2023-05-29T00:02:33;8.60;99.90
47162;DHT22;32921;53.256;8.198;2023-05-29T00:04:58;8.60;99.90
47162;DHT22;32921;53.256;8.198;2023-05-29T00:07:24;8.60;99.90
47162;DHT22;32921;53.256;8.198;2023-05-29T00:09:50;8.50;99.90
47162;DHT22;32921;53.256;8.198;2023-05-29T00:12:16;8.60;99.90
47162;DHT22;32921;53.256;8.198;2023-05-29T00:14:41;8.70;99.90
47162;DHT22;32921;53.256;8.198;2023-05-29T00:17:07;8.70;99.90
47162;DHT22;32921;53.256;8.198;2023-05-29T00:19:33;8.60;99.90
47162;DHT22;32921;53.256;8.198;2023-05-29T00:21:59;8.50;99.90
47162;DHT22;32921;53.256;8.198;2023-05-29T00:24:24;8.60;99.90
47162;DHT22;32921;53.256;8.198;2023-05-29T00:26:50;8.60;99.90
47162;DHT22;32921;53.256;8.198;2023-05-29T00:29:15;8.60;99.90
47162;DHT22;32921;53.256;8.198;2023-05-29T00:31:42;8.50;99.90
47162;DHT22;32921;53.256;8.198;2023-05-29T00:34:07;8.50;99.90
47162;DHT22;32921;53.256;8.198;2023-05-29T00:36:34;8.40;99.90
47162;DHT22;32921;53.256;8.198;2023-05-29T00:38:59;8.60;99.90
47162;DHT22;32921;53.256;8.198;2023-05-29T00:41:25;8.50;99.90
47162;DHT22;32921;53.256;8.198;2023-05-29T00:43:51;8.50;99.90
47162;DHT22;32921;53.256;8.198;2023-05-29T00:46:17;8.40;99.90
47162;DHT22;32921;53.256;8.198;2023-05-29T00:48:42;8.30;99.90
47162;DHT22;32921;53.256;8.198;2023-05-29T00:51:09;8.30;99.90
47162;DHT22;32921;53.256;8.198;2023-05-29T00:53:36;8.20;99.90
47162;DHT22;32921;53.256;8.198;2023-05-29T00:56:02;8.30;99.90
47162;DHT22;32921;53.256;8.198;2023-05-29T00:58:29;8.30;99.90
47162;DHT22;32921;53.256;8.198;2023-05-29T01:00:55;8.30;99.90
47162;DHT22;32921;53.256;8.198;2023-05-29T01:03:21;8.20;99.90
47162;DHT22;32921;53.256;8.198;2023-05-29T01:05:48;8.30;99.90
47162;DHT22;32921;53.256;8.198;2023-05-29T01:08:14;8.30;99.90
47162;DHT22;32921;53.256;8.198;2023-05-29T01:10:40;8.30;99.90
47162;DHT22;32921;53.256;8.198;2023-05-29T01:13:19;8.50;99.90
47162;DHT22;32921;53.256;8.198;2023-05-29T01:27:15;8.40;99.90
47162;DHT22;32921;53.256;8.198;2023-05-29T01:29:43;8.40;99.90
47162;DHT22;32921;53.256;8.198;2023-05-29T01:32:10;8.40;99.90
47162;DHT22;32921;53.256;8.198;2023-05-29T01:34:36;8.40;99.90
47162;DHT22;32921;53.256;8.198;2023-05-29T01:37:01;8.40;99.90
47162;DHT22;32921;53.256;8.198;2023-05-29T01:39:27;8.30;99.90
47162;DHT22;32921;53.256;8.198;2023-05-29T01:41:53;8.30;99.90
47162;DHT22;32921;53.256;8.198;2023-05-29T01:44:20;8.10;99.90
47162;DHT22;32921;53.256;8.198;2023-05-29T01:46:46;8.00;99.90
47162;DHT22;32921;53.256;8.198;2023-05-29T01:49:12;8.00;99.90
47162;DHT22;32921;53.256;8.198;2023-05-29T01:51:40;8.20;99.90
47162;DHT22;32921;53.256;8.198;2023-05-29T01:54:06;8.20;99.90
47162;DHT22;32921;53.256;8.198;2023-05-29T01:56:33;8.20;99.90
47162;DHT22;32921;53.256;8.198;2023-05-29T01:59:02;8.10;99.90
47162;DHT22;32921;53.256;8.198;2023-05-29T02:01:28;8.10;99.90
47162;DHT22;32921;53.256;8.198;2023-05-29T02:03:53;8.00;99.90
47162;DHT22;32921;53.256;8.198;2023-05-29T02:06:19;8.00;99.90
47162;DHT22;32921;53.256;8.198;2023-05-29T02:08:45;8.00;99.90
47162;DHT22;32921;53.256;8.198;2023-05-29T02:11:11;7.90;99.90
47162;DHT22;32921;53.256;8.198;2023-05-29T02:13:37;7.80;99.90
47162;DHT22;32921;53.256;8.198;2023-05-29T02:16:03;7.80;99.90
47162;DHT22;32921;53.256;8.198;2023-05-29T02:18:29;8.00;99.90
47162;DHT22;32921;53.256;8.198;2023-05-29T02:20:54;8.00;99.90
47162;DHT22;32921;53.256;8.198;2023-05-29T02:23:20;7.90;99.90
47162;DHT22;32921;53.256;8.198;2023-05-29T02:25:46;7.90;99.90
47162;DHT22;32921;53.256;8.198;2023-05-29T02:28:12;7.80;99.90
47162;DHT22;32921;53.256;8.198;2023-05-29T02:30:38;7.70;99.90
47162;DHT22;32921;53.256;8.198;2023-05-29T02:33:03;7.60;99.90
47162;DHT22;32921;53.256;8.198;2023-05-29T02:35:29;7.70;99.90
47162;DHT22;32921;53.256;8.198;2023-05-29T02:37:55;7.60;99.90
47162;DHT22;32921;53.256;8.198;2023-05-29T02:40:20;7.60;99.90
47162;DHT22;32921;53.256;8.198;2023-05-29T02:42:47;7.60;99.90
47162;DHT22;32921;53.256;8.198;2023-05-29T02:45:12;7.50;99.90
47162;DHT22;32921;53.256;8.198;2023-05-29T02:47:38;7.50;99.90
47162;DHT22;32921;53.256;8.198;2023-05-29T02:50:04;7.50;99.90
47162;DHT22;32921;53.256;8.198;2023-05-29T02:52:32;7.60;99.90
47162;DHT22;32921;53.256;8.198;2023-05-29T02:54:57;7.60;99.90
47162;DHT22;32921;53.256;8.198;2023-05-29T02:57:24;7.60;99.90
47162;DHT22;32921;53.256;8.198;2023-05-29T02:59:50;7.40;99.90
47162;DHT22;32921;53.256;8.198;2023-05-29T03:02:17;7.40;99.90
47162;DHT22;32921;53.256;8.198;2023-05-29T03:04:43;7.20;99.90
47162;DHT22;32921;53.256;8.198;2023-05-29T03:07:09;7.10;99.90
47162;DHT22;32921;53.256;8.198;2023-05-29T03:09:35;7.10;99.90
47162;DHT22;32921;53.256;8.198;2023-05-29T03:12:01;7.10;99.90
47162;DHT22;32921;53.256;8.198;2023-05-29T03:14:26;7.10;99.90
47162;DHT22;32921;53.256;8.198;2023-05-29T03:16:53;7.10;99.90
47162;DHT22;32921;53.256;8.198;2023-05-29T03:19:18;7.10;99.90
47162;DHT22;32921;53.256;8.198;2023-05-29T03:21:44;7.10;99.90
47162;DHT22;32921;53.256;8.198;2023-05-29T03:24:10;7.20;99.90
47162;DHT22;32921;53.256;8.198;2023-05-29T03:26:36;7.40;99.90
47162;DHT22;32921;53.256;8.198;2023-05-29T03:29:02;7.30;99.90
47162;DHT22;32921;53.256;8.198;2023-05-29T03:31:27;7.40;99.90
47162;DHT22;32921;53.256;8.198;2023-05-29T03:33:53;7.40;99.90
47162;DHT22;32921;53.256;8.198;2023-05-29T03:36:19;7.50;99.90
47162;DHT22;32921;53.256;8.198;2023-05-29T03:38:44;7.50;99.90
47162;DHT22;32921;53.256;8.198;2023-05-29T03:41:10;7.60;99.90
47162;DHT22;32921;53.256;8.198;2023-05-29T03:43:36;7.60;99.90
47162;DHT22;32921;53.256;8.198;2023-05-29T03:46:01;7.60;99.90
47162;DHT22;32921;53.256;8.198;2023-05-29T03:48:27;7.60;99.90
47162;DHT22;32921;53.256;8.198;2023-05-29T03:50:52;7.60;99.90
47162;DHT22;32921;53.256;8.198;2023-05-29T03:53:18;7.60;99.90
47162;DHT22;32921;53.256;8.198;2023-05-29T03:55:44;7.50;99.90
47162;DHT22;32921;53.256;8.198;2023-05-29T03:58:09;7.50;99.90
47162;DHT22;32921;53.256;8.198;2023-05-29T04:00:37;7.50;99.90
47162;DHT22;32921;53.256;8.198;2023-05-29T04:03:03;7.50;99.90
47162;DHT22;32921;53.256;8.198;2023-05-29T04:05:29;7.60;99.90
47162;DHT22;32921;53.256;8.198;2023-05-29T04:07:55;7.60;99.90
47162;DHT22;32921;53.256;8.198;2023-05-29T04:10:21;7.60;99.90
47162;DHT22;32921;53.256;8.198;2023-05-29T04:12:46;7.70;99.90
47162;DHT22;32921;53.256;8.198;2023-05-29T04:15:12;7.70;99.90
47162;DHT22;32921;53.256;8.198;2023-05-29T04:17:37;7.80;99.90
47162;DHT22;32921;53.256;8.198;2023-05-29T04:20:03;7.90;99.90
47162;DHT22;32921;53.256;8.198;2023-05-29T04:22:35;8.10;99.90
47162;DHT22;32921;53.256;8.198;2023-05-29T04:25:01;8.20;99.90
47162;DHT22;32921;53.256;8.198;2023-05-29T04:27:29;8.20;99.90
47162;DHT22;32921;53.256;8.198;2023-05-29T04:29:55;8.20;99.90
47162;DHT22;32921;53.256;8.198;2023-05-29T04:32:21;8.30;99.90
47162;DHT22;32921;53.256;8.198;2023-05-29T04:34:47;8.30;99.90
47162;DHT22;32921;53.256;8.198;2023-05-29T04:37:13;8.40;99.90
47162;DHT22;32921;53.256;8.198;2023-05-29T04:39:39;8.50;99.90
47162;DHT22;32921;53.256;8.198;2023-05-29T04:42:04;8.50;99.90
47162;DHT22;32921;53.256;8.198;2023-05-29T04:44:30;8.50;99.90
47162;DHT22;32921;53.256;8.198;2023-05-29T04:46:56;8.60;99.90
47162;DHT22;32921;53.256;8.198;2023-05-29T04:49:24;8.60;99.90
47162;DHT22;32921;53.256;8.198;2023-05-29T04:51:50;8.70;99.90
47162;DHT22;32921;53.256;8.198;2023-05-29T04:54:18;8.80;99.90
47162;DHT22;32921;53.256;8.198;2023-05-29T04:56:45;8.80;99.90
47162;DHT22;32921;53.256;8.198;2023-05-29T04:59:11;9.00;99.90
47162;DHT22;32921;53.256;8.198;2023-05-29T05:01:37;9.10;99.90
47162;DHT22;32921;53.256;8.198;2023-05-29T05:04:03;9.20;99.90
47162;DHT22;32921;53.256;8.198;2023-05-29T05:06:29;9.30;99.90
47162;DHT22;32921;53.256;8.198;2023-05-29T05:08:54;9.50;99.90
47162;DHT22;32921;53.256;8.198;2023-05-29T05:11:22;9.70;99.90
47162;DHT22;32921;53.256;8.198;2023-05-29T05:13:48;10.00;99.90
47162;DHT22;32921;53.256;8.198;2023-05-29T05:16:14;10.30;99.90
47162;DHT22;32921;53.256;8.198;2023-05-29T05:18:39;10.80;99.90
47162;DHT22;32921;53.256;8.198;2023-05-29T05:21:05;11.30;99.90
47162;DHT22;32921;53.256;8.198;2023-05-29T05:23:31;11.50;99.90
47162;DHT22;32921;53.256;8.198;2023-05-29T05:25:57;11.80;99.90
47162;DHT22;32921;53.256;8.198;2023-05-29T05:28:23;12.10;99.90
47162;DHT22;32921;53.256;8.198;2023-05-29T05:30:48;12.30;99.90
47162;DHT22;32921;53.256;8.198;2023-05-29T05:33:14;12.50;99.90
47162;DHT22;32921;53.256;8.198;2023-05-29T05:35:39;12.70;99.90
47162;DHT22;32921;53.256;8.198;2023-05-29T05:38:05;12.80;99.60
47162;DHT22;32921;53.256;8.198;2023-05-29T05:40:31;13.00;97.70
47162;DHT22;32921;53.256;8.198;2023-05-29T05:42:57;13.10;95.90
47162;DHT22;32921;53.256;8.198;2023-05-29T05:45:23;13.00;95.20
47162;DHT22;32921;53.256;8.198;2023-05-29T05:47:49;13.00;94.50
47162;DHT22;32921;53.256;8.198;2023-05-29T05:50:14;12.80;94.20
47162;DHT22;32921;53.256;8.198;2023-05-29T05:52:40;12.70;92.70
47162;DHT22;32921;53.256;8.198;2023-05-29T05:55:06;12.60;92.30
47162;DHT22;32921;53.256;8.198;2023-05-29T05:57:33;12.50;91.40
47162;DHT22;32921;53.256;8.198;2023-05-29T05:59:59;12.70;91.30
47162;DHT22;32921;53.256;8.198;2023-05-29T06:02:25;13.20;90.70
47162;DHT22;32921;53.256;8.198;2023-05-29T06:04:51;13.80;88.80
47162;DHT22;32921;53.256;8.198;2023-05-29T06:07:17;13.90;83.40
47162;DHT22;32921;53.256;8.198;2023-05-29T06:09:43;13.90;84.70
47162;DHT22;32921;53.256;8.198;2023-05-29T06:12:09;13.90;85.40
47162;DHT22;32921;53.256;8.198;2023-05-29T06:14:35;14.40;82.00
47162;DHT22;32921;53.256;8.198;2023-05-29T06:17:01;14.40;82.10
47162;DHT22;32921;53.256;8.198;2023-05-29T06:19:26;14.80;78.50
47162;DHT22;32921;53.256;8.198;2023-05-29T06:21:52;14.80;76.40
47162;DHT22;32921;53.256;8.198;2023-05-29T06:24:18;14.50;76.90
47162;DHT22;32921;53.256;8.198;2023-05-29T06:26:43;14.40;78.00
47162;DHT22;32921;53.256;8.198;2023-05-29T06:29:09;14.80;77.20
47162;DHT22;32921;53.256;8.198;2023-05-29T06:31:34;15.20;75.80
47162;DHT22;32921;53.256;8.198;2023-05-29T06:34:00;15.20;74.90
47162;DHT22;32921;53.256;8.198;2023-05-29T06:36:26;15.40;74.10
47162;DHT22;32921;53.256;8.198;2023-05-29T06:38:51;15.20;73.30
47162;DHT22;32921;53.256;8.198;2023-05-29T06:41:17;15.60;71.80
47162;DHT22;32921;53.256;8.198;2023-05-29T06:43:43;16.00;71.60
47162;DHT22;32921;53.256;8.198;2023-05-29T06:46:10;16.20;69.90
47162;DHT22;32921;53.256;8.198;2023-05-29T06:48:35;16.60;69.10
47162;DHT22;32921;53.256;8.198;2023-05-29T06:51:02;16.60;68.90
47162;DHT22;32921;53.256;8.198;2023-05-29T06:53:38;16.50;68.60
47162;DHT22;32921;53.256;8.198;2023-05-29T06:56:07;16.60;67.20
47162;DHT22;32921;53.256;8.198;2023-05-29T06:58:32;15.60;68.30
47162;DHT22;32921;53.256;8.198;2023-05-29T07:00:58;15.20;70.80
47162;DHT22;32921;53.256;8.198;2023-05-29T07:03:27;15.60;70.60
47162;DHT22;32921;53.256;8.198;2023-05-29T07:05:53;16.20;67.10
47162;DHT22;32921;53.256;8.198;2023-05-29T07:08:19;16.10;67.30
47162;DHT22;32921;53.256;8.198;2023-05-29T07:10:45;16.10;66.80
47162;DHT22;32921;53.256;8.198;2023-05-29T07:13:15;15.80;67.70
47162;DHT22;32921;53.256;8.198;2023-05-29T07:15:41;15.40;69.30
47162;DHT22;32921;53.256;8.198;2023-05-29T07:18:07;15.40;69.90
47162;DHT22;32921;53.256;8.198;2023-05-29T07:20:33;15.40;69.10
47162;DHT22;32921;53.256;8.198;2023-05-29T07:22:58;14.80;69.80
47162;DHT22;32921;53.256;8.198;2023-05-29T07:25:24;14.40;71.90
47162;DHT22;32921;53.256;8.198;2023-05-29T07:27:49;14.80;72.10
47162;DHT22;32921;53.256;8.198;2023-05-29T07:30:16;15.60;70.70
47162;DHT22;32921;53.256;8.198;2023-05-29T07:32:41;16.20;67.80
47162;DHT22;32921;53.256;8.198;2023-05-29T07:35:07;16.60;67.80
47162;DHT22;32921;53.256;8.198;2023-05-29T07:37:34;16.90;65.50
47162;DHT22;32921;53.256;8.198;2023-05-29T07:40:00;16.80;65.10
47162;DHT22;32921;53.256;8.198;2023-05-29T07:42:25;16.60;65.20
47162;DHT22;32921;53.256;8.198;2023-05-29T07:44:51;16.50;65.80
47162;DHT22;32921;53.256;8.198;2023-05-29T07:47:17;16.70;65.70
47162;DHT22;32921;53.256;8.198;2023-05-29T07:49:42;16.90;63.80
47162;DHT22;32921;53.256;8.198;2023-05-29T07:52:08;16.50;64.70
47162;DHT22;32921;53.256;8.198;2023-05-29T07:54:34;16.30;65.30
47162;DHT22;32921;53.256;8.198;2023-05-29T07:57:00;16.40;66.20
47162;DHT22;32921;53.256;8.198;2023-05-29T07:59:27;16.90;65.30
47162;DHT22;32921;53.256;8.198;2023-05-29T08:01:54;17.30;62.90
47162;DHT22;32921;53.256;8.198;2023-05-29T08:04:23;17.10;63.10
47162;DHT22;32921;53.256;8.198;2023-05-29T08:06:49;16.80;64.00
47162;DHT22;32921;53.256;8.198;2023-05-29T08:09:14;16.80;63.00
47162;DHT22;32921;53.256;8.198;2023-05-29T08:11:40;16.50;63.60
47162;DHT22;32921;53.256;8.198;2023-05-29T08:14:06;16.70;63.80
47162;DHT22;32921;53.256;8.198;2023-05-29T08:16:31;17.10;63.90
47162;DHT22;32921;53.256;8.198;2023-05-29T08:18:57;17.20;61.60
47162;DHT22;32921;53.256;8.198;2023-05-29T08:21:23;16.50;63.80
47162;DHT22;32921;53.256;8.198;2023-05-29T08:23:49;16.70;64.30
47162;DHT22;32921;53.256;8.198;2023-05-29T08:26:14;17.00;63.10
47162;DHT22;32921;53.256;8.198;2023-05-29T08:28:40;16.90;62.50
47162;DHT22;32921;53.256;8.198;2023-05-29T08:31:05;16.60;64.30
47162;DHT22;32921;53.256;8.198;2023-05-29T08:33:31;16.80;64.70
47162;DHT22;32921;53.256;8.198;2023-05-29T08:36:00;16.70;64.50
47162;DHT22;32921;53.256;8.198;2023-05-29T08:38:26;16.60;64.90
47162;DHT22;32921;53.256;8.198;2023-05-29T08:40:52;16.70;63.30
47162;DHT22;32921;53.256;8.198;2023-05-29T08:43:21;16.50;63.40
47162;DHT22;32921;53.256;8.198;2023-05-29T08:45:52;16.80;64.70
47162;DHT22;32921;53.256;8.198;2023-05-29T08:48:19;17.50;63.10
47162;DHT22;32921;53.256;8.198;2023-05-29T08:50:46;17.90;62.00
47162;DHT22;32921;53.256;8.198;2023-05-29T08:53:15;17.80;61.40
47162;DHT22;32921;53.256;8.198;2023-05-29T08:55:41;17.60;62.10
47162;DHT22;32921;53.256;8.198;2023-05-29T08:58:08;17.80;60.50
47162;DHT22;32921;53.256;8.198;2023-05-29T09:00:35;17.70;61.20
47162;DHT22;32921;53.256;8.198;2023-05-29T09:03:02;17.30;62.20
47162;DHT22;32921;53.256;8.198;2023-05-29T09:05:28;17.60;61.50
47162;DHT22;32921;53.256;8.198;2023-05-29T09:07:55;17.60;60.90
47162;DHT22;32921;53.256;8.198;2023-05-29T09:10:21;17.60;59.80
47162;DHT22;32921;53.256;8.198;2023-05-29T09:12:47;17.30;60.10
47162;DHT22;32921;53.256;8.198;2023-05-29T09:15:23;17.40;61.40
47162;DHT22;32921;53.256;8.198;2023-05-29T09:17:53;17.50;61.10
47162;DHT22;32921;53.256;8.198;2023-05-29T09:20:20;17.60;63.30
47162;DHT22;32921;53.256;8.198;2023-05-29T09:23:08;17.80;61.30
47162;DHT22;32921;53.256;8.198;2023-05-29T09:25:39;17.60;61.50
47162;DHT22;32921;53.256;8.198;2023-05-29T09:28:06;18.10;61.60
47162;DHT22;32921;53.256;8.198;2023-05-29T09:30:46;18.60;58.30
47162;DHT22;32921;53.256;8.198;2023-05-29T09:33:15;18.30;58.80
47162;DHT22;32921;53.256;8.198;2023-05-29T09:35:42;17.90;59.20
47162;DHT22;32921;53.256;8.198;2023-05-29T09:38:11;18.00;58.90
47162;DHT22;32921;53.256;8.198;2023-05-29T09:40:39;17.90;58.90
47162;DHT22;32921;53.256;8.198;2023-05-29T09:43:10;18.10;59.80
47162;DHT22;32921;53.256;8.198;2023-05-29T09:45:49;18.20;59.70
47162;DHT22;32921;53.256;8.198;2023-05-29T09:50:42;18.30;59.70
47162;DHT22;32921;53.256;8.198;2023-05-29T09:53:20;18.40;59.20
47162;DHT22;32921;53.256;8.198;2023-05-29T09:55:47;18.60;58.40
47162;DHT22;32921;53.256;8.198;2023-05-29T09:58:14;18.50;59.50
47162;DHT22;32921;53.256;8.198;2023-05-29T10:00:41;18.20;59.90
47162;DHT22;32921;53.256;8.198;2023-05-29T10:03:07;19.00;59.10
47162;DHT22;32921;53.256;8.198;2023-05-29T10:05:32;18.80;57.90
47162;DHT22;32921;53.256;8.198;2023-05-29T10:07:59;18.70;57.60
47162;DHT22;32921;53.256;8.198;2023-05-29T10:10:27;18.40;58.40
47162;DHT22;32921;53.256;8.198;2023-05-29T10:12:54;18.60;57.80
47162;DHT22;32921;53.256;8.198;2023-05-29T10:15:23;18.70;57.40
47162;DHT22;32921;53.256;8.198;2023-05-29T10:18:04;18.70;59.10
47162;DHT22;32921;53.256;8.198;2023-05-29T10:20:31;19.00;57.30
47162;DHT22;32921;53.256;8.198;2023-05-29T10:23:00;19.80;56.50
47162;DHT22;32921;53.256;8.198;2023-05-29T10:25:27;19.50;55.30
47162;DHT22;32921;53.256;8.198;2023-05-29T10:27:56;19.40;56.00
47162;DHT22;32921;53.256;8.198;2023-05-29T10:38:30;19.70;55.60
47162;DHT22;32921;53.256;8.198;2023-05-29T10:40:55;19.90;56.00
47162;DHT22;32921;53.256;8.198;2023-05-29T10:43:34;19.80;54.90
47162;DHT22;32921;53.256;8.198;2023-05-29T10:46:01;20.30;55.30
47162;DHT22;32921;53.256;8.198;2023-05-29T10:50:56;20.50;53.00
47162;DHT22;32921;53.256;8.198;2023-05-29T10:53:24;20.20;55.80
47162;DHT22;32921;53.256;8.198;2023-05-29T10:55:52;20.10;54.30
47162;DHT22;32921;53.256;8.198;2023-05-29T10:58:20;19.70;55.30
47162;DHT22;32921;53.256;8.198;2023-05-29T11:00:47;19.20;56.00
47162;DHT22;32921;53.256;8.198;2023-05-29T11:03:31;19.50;55.70
47162;DHT22;32921;53.256;8.198;2023-05-29T11:06:04;20.00;55.80
47162;DHT22;32921;53.256;8.198;2023-05-29T11:08:45;20.50;54.20
47162;DHT22;32921;53.256;8.198;2023-05-29T11:11:12;21.00;52.80
47162;DHT22;32921;53.256;8.198;2023-05-29T11:13:38;21.20;51.40
47162;DHT22;32921;53.256;8.198;2023-05-29T11:18:51;20.20;53.80
47162;DHT22;32921;53.256;8.198;2023-05-29T11:24:07;20.80;52.80
47162;DHT22;32921;53.256;8.198;2023-05-29T11:26:40;20.70;52.60
47162;DHT22;32921;53.256;8.198;2023-05-29T11:29:10;21.10;51.70
47162;DHT22;32921;53.256;8.198;2023-05-29T11:31:37;21.50;51.40
47162;DHT22;32921;53.256;8.198;2023-05-29T11:34:04;22.10;50.10
47162;DHT22;32921;53.256;8.198;2023-05-29T11:36:34;21.40;49.00
47162;DHT22;32921;53.256;8.198;2023-05-29T11:39:00;20.40;51.10
47162;DHT22;32921;53.256;8.198;2023-05-29T11:41:27;20.20;52.70
47162;DHT22;32921;53.256;8.198;2023-05-29T11:43:57;20.60;50.80
47162;DHT22;32921;53.256;8.198;2023-05-29T11:46:24;20.90;51.10
47162;DHT22;32921;53.256;8.198;2023-05-29T11:48:52;20.60;50.20
47162;DHT22;32921;53.256;8.198;2023-05-29T11:51:17;20.70;51.10
47162;DHT22;32921;53.256;8.198;2023-05-29T11:53:46;20.50;51.90
47162;DHT22;32921;53.256;8.198;2023-05-29T11:56:12;21.00;50.40
47162;DHT22;32921;53.256;8.198;2023-05-29T11:58:38;21.30;50.70
47162;DHT22;32921;53.256;8.198;2023-05-29T12:01:05;21.60;50.10
47162;DHT22;32921;53.256;8.198;2023-05-29T12:03:37;21.80;50.00
47162;DHT22;32921;53.256;8.198;2023-05-29T12:06:03;20.80;51.70
47162;DHT22;32921;53.256;8.198;2023-05-29T12:08:28;20.00;52.50
47162;DHT22;32921;53.256;8.198;2023-05-29T12:10:54;20.40;53.10
47162;DHT22;32921;53.256;8.198;2023-05-29T12:13:20;20.30;52.80
47162;DHT22;32921;53.256;8.198;2023-05-29T12:15:47;20.30;52.10
47162;DHT22;32921;53.256;8.198;2023-05-29T12:18:13;20.30;51.80
47162;DHT22;32921;53.256;8.198;2023-05-29T12:20:39;20.60;51.50
47162;DHT22;32921;53.256;8.198;2023-05-29T12:23:05;20.30;52.20
47162;DHT22;32921;53.256;8.198;2023-05-29T12:25:33;21.40;51.00
47162;DHT22;32921;53.256;8.198;2023-05-29T12:27:59;21.30;49.20
47162;DHT22;32921;53.256;8.198;2023-05-29T12:30:25;19.80;53.20
47162;DHT22;32921;53.256;8.198;2023-05-29T12:32:52;19.10;53.80
47162;DHT22;32921;53.256;8.198;2023-05-29T12:35:20;19.00;54.70
47162;DHT22;32921;53.256;8.198;2023-05-29T12:37:59;19.70;53.90
47162;DHT22;32921;53.256;8.198;2023-05-29T12:40:26;20.40;51.10
47162;DHT22;32921;53.256;8.198;2023-05-29T12:45:24;20.50;50.80
47162;DHT22;32921;53.256;8.198;2023-05-29T12:48:04;21.10;50.10
47162;DHT22;32921;53.256;8.198;2023-05-29T12:50:32;20.80;49.60
47162;DHT22;32921;53.256;8.198;2023-05-29T12:53:03;20.40;48.60
47162;DHT22;32921;53.256;8.198;2023-05-29T12:55:30;20.20;49.20
47162;DHT22;32921;53.256;8.198;2023-05-29T12:57:59;20.10;49.80
47162;DHT22;32921;53.256;8.198;2023-05-29T13:00:25;20.50;48.10
47162;DHT22;32921;53.256;8.198;2023-05-29T13:02:51;20.60;48.90
47162;DHT22;32921;53.256;8.198;2023-05-29T13:05:17;21.30;45.50
47162;DHT22;32921;53.256;8.198;2023-05-29T13:07:46;21.00;47.10
47162;DHT22;32921;53.256;8.198;2023-05-29T13:10:12;20.80;46.90
47162;DHT22;32921;53.256;8.198;2023-05-29T13:12:38;21.00;48.50
47162;DHT22;32921;53.256;8.198;2023-05-29T13:15:03;21.10;47.50
47162;DHT22;32921;53.256;8.198;2023-05-29T13:17:29;21.00;47.30
47162;DHT22;32921;53.256;8.198;2023-05-29T13:19:55;20.60;47.20
47162;DHT22;32921;53.256;8.198;2023-05-29T13:22:20;20.70;46.80
47162;DHT22;32921;53.256;8.198;2023-05-29T13:24:46;21.20;46.40
47162;DHT22;32921;53.256;8.198;2023-05-29T13:27:11;21.40;46.20
47162;DHT22;32921;53.256;8.198;2023-05-29T13:29:42;21.60;46.30
47162;DHT22;32921;53.256;8.198;2023-05-29T13:32:08;21.90;46.60
47162;DHT22;32921;53.256;8.198;2023-05-29T13:34:33;21.90;45.80
47162;DHT22;32921;53.256;8.198;2023-05-29T13:36:59;21.90;45.20
47162;DHT22;32921;53.256;8.198;2023-05-29T13:39:27;21.80;44.30
47162;DHT22;32921;53.256;8.198;2023-05-29T13:41:53;21.40;44.40
47162;DHT22;32921;53.256;8.198;2023-05-29T13:44:19;21.20;45.70
47162;DHT22;32921;53.256;8.198;2023-05-29T13:46:44;21.70;44.10
47162;DHT22;32921;53.256;8.198;2023-05-29T13:49:10;22.00;43.40
47162;DHT22;32921;53.256;8.198;2023-05-29T13:51:35;21.50;44.10
47162;DHT22;32921;53.256;8.198;2023-05-29T13:54:02;21.50;45.30
47162;DHT22;32921;53.256;8.198;2023-05-29T13:56:29;21.00;47.00
47162;DHT22;32921;53.256;8.198;2023-05-29T13:58:54;21.40;46.70
47162;DHT22;32921;53.256;8.198;2023-05-29T14:01:20;21.80;45.10
47162;DHT22;32921;53.256;8.198;2023-05-29T14:03:46;21.30;46.40
47162;DHT22;32921;53.256;8.198;2023-05-29T14:06:12;20.80;47.00
47162;DHT22;32921;53.256;8.198;2023-05-29T14:08:37;21.20;47.30
47162;DHT22;32921;53.256;8.198;2023-05-29T14:11:03;21.20;45.10
47162;DHT22;32921;53.256;8.198;2023-05-29T14:13:28;21.60;44.10
47162;DHT22;32921;53.256;8.198;2023-05-29T14:15:54;21.90;44.00
47162;DHT22;32921;53.256;8.198;2023-05-29T14:18:22;21.00;45.30
47162;DHT22;32921;53.256;8.198;2023-05-29T14:20:48;20.90;45.20
47162;DHT22;32921;53.256;8.198;2023-05-29T14:23:14;22.00;43.70
47162;DHT22;32921;53.256;8.198;2023-05-29T14:25:44;22.50;42.50
47162;DHT22;32921;53.256;8.198;2023-05-29T14:28:10;22.30;40.60
47162;DHT22;32921;53.256;8.198;2023-05-29T14:30:37;21.90;40.60
47162;DHT22;32921;53.256;8.198;2023-05-29T14:33:03;21.10;41.90
47162;DHT22;32921;53.256;8.198;2023-05-29T14:35:29;20.90;43.30
47162;DHT22;32921;53.256;8.198;2023-05-29T14:37:56;20.70;44.00
47162;DHT22;32921;53.256;8.198;2023-05-29T14:40:21;20.80;44.10
47162;DHT22;32921;53.256;8.198;2023-05-29T14:42:47;21.20;43.30
47162;DHT22;32921;53.256;8.198;2023-05-29T14:45:12;21.80;41.70
47162;DHT22;32921;53.256;8.198;2023-05-29T14:47:40;21.60;41.50
47162;DHT22;32921;53.256;8.198;2023-05-29T14:50:06;20.80;42.10
47162;DHT22;32921;53.256;8.198;2023-05-29T14:52:32;20.90;42.90
47162;DHT22;32921;53.256;8.198;2023-05-29T14:54:57;20.90;43.00
47162;DHT22;32921;53.256;8.198;2023-05-29T14:57:23;20.70;43.00
47162;DHT22;32921;53.256;8.198;2023-05-29T14:59:48;19.70;44.50
47162;DHT22;32921;53.256;8.198;2023-05-29T15:02:15;19.60;45.20
47162;DHT22;32921;53.256;8.198;2023-05-29T15:04:41;19.70;45.90
47162;DHT22;32921;53.256;8.198;2023-05-29T15:07:07;20.80;42.30
47162;DHT22;32921;53.256;8.198;2023-05-29T15:09:33;20.60;43.20
47162;DHT22;32921;53.256;8.198;2023-05-29T15:11:58;20.00;44.50
47162;DHT22;32921;53.256;8.198;2023-05-29T15:14:24;20.20;45.10
47162;DHT22;32921;53.256;8.198;2023-05-29T15:16:50;20.70;43.20
47162;DHT22;32921;53.256;8.198;2023-05-29T15:19:15;20.90;43.50
47162;DHT22;32921;53.256;8.198;2023-05-29T15:21:41;21.00;43.20
47162;DHT22;32921;53.256;8.198;2023-05-29T15:24:07;20.80;43.90
47162;DHT22;32921;53.256;8.198;2023-05-29T15:26:33;20.60;44.00
47162;DHT22;32921;53.256;8.198;2023-05-29T15:29:00;19.80;45.70
47162;DHT22;32921;53.256;8.198;2023-05-29T15:31:25;20.20;45.20
47162;DHT22;32921;53.256;8.198;2023-05-29T15:33:52;20.10;44.90
47162;DHT22;32921;53.256;8.198;2023-05-29T15:36:18;20.00;44.70
47162;DHT22;32921;53.256;8.198;2023-05-29T15:38:46;20.80;43.60
47162;DHT22;32921;53.256;8.198;2023-05-29T15:41:12;21.50;42.50
47162;DHT22;32921;53.256;8.198;2023-05-29T15:43:37;21.70;41.70
47162;DHT22;32921;53.256;8.198;2023-05-29T15:46:03;21.20;43.20
47162;DHT22;32921;53.256;8.198;2023-05-29T15:48:29;20.20;45.30
47162;DHT22;32921;53.256;8.198;2023-05-29T15:50:54;19.50;46.90
47162;DHT22;32921;53.256;8.198;2023-05-29T15:53:20;20.00;46.70
47162;DHT22;32921;53.256;8.198;2023-05-29T15:55:46;20.10;46.60
47162;DHT22;32921;53.256;8.198;2023-05-29T15:58:11;20.90;44.40
47162;DHT22;32921;53.256;8.198;2023-05-29T16:00:37;20.70;43.80
47162;DHT22;32921;53.256;8.198;2023-05-29T16:03:03;19.90;46.00